createdAt,value
2022-07-26T00:00:47.173Z,95.25
2022-07-26T00:01:47.333Z,95.54
2022-07-26T00:02:47.325Z,95.25
2022-07-26T00:03:47.098Z,95.74
2022-07-26T00:04:47.087Z,95.74
2022-07-26T00:05:47.072Z,95.83
2022-07-26T00:06:47.057Z,95.54
2022-07-26T00:07:47.045Z,95.54
2022-07-26T00:08:47.030Z,95.83
2022-07-26T00:09:48.545Z,95.45
2022-07-26T00:10:47.005Z,95.83
2022-07-26T00:11:46.990Z,95.93
2022-07-26T00:12:46.974Z,95.25
2022-07-26T00:13:46.964Z,95.45
2022-07-26T00:14:46.946Z,95.45
2022-07-26T00:15:46.943Z,95.64
2022-07-26T00:16:46.982Z,95.64
2022-07-26T00:17:46.905Z,95.74
2022-07-26T00:18:46.896Z,96.61
2022-07-26T00:19:46.875Z,96.61
2022-07-26T00:20:46.872Z,97.09
2022-07-26T00:21:46.854Z,97.52
2022-07-26T00:22:46.840Z,98.29
2022-07-26T00:23:46.827Z,98.25
2022-07-26T00:24:46.807Z,97.19
2022-07-26T00:25:46.795Z,97.86
2022-07-26T00:26:46.787Z,97.09
2022-07-26T00:27:46.765Z,97.38
2022-07-26T00:28:46.755Z,97.38
2022-07-26T00:29:46.737Z,96.80
2022-07-26T00:30:46.723Z,97.28
2022-07-26T00:31:46.801Z,98.34
2022-07-26T00:32:46.698Z,97.96
2022-07-26T00:33:46.688Z,98.68
2022-07-26T00:34:46.670Z,99.55
2022-07-26T00:35:46.662Z,99.99
2022-07-26T00:36:46.645Z,99.99
2022-07-26T00:37:46.632Z,99.99
2022-07-26T00:38:46.615Z,99.99
2022-07-26T00:39:46.603Z,99.99
2022-07-26T00:40:46.591Z,99.99
2022-07-26T00:41:46.572Z,99.99
2022-07-26T00:42:46.560Z,99.99
2022-07-26T00:43:46.546Z,99.99
2022-07-26T00:44:46.542Z,99.99
2022-07-26T00:45:46.602Z,99.99
2022-07-26T00:46:46.502Z,99.99
2022-07-26T00:47:46.493Z,99.99
2022-07-26T00:48:46.543Z,99.99
2022-07-26T00:49:46.464Z,99.99
2022-07-26T00:50:46.448Z,99.99
2022-07-26T00:51:46.693Z,99.99
2022-07-26T00:52:46.419Z,99.98
2022-07-26T00:53:46.405Z,99.99
2022-07-26T00:54:46.392Z,99.99
2022-07-26T00:55:46.376Z,99.99
2022-07-26T00:56:46.359Z,99.99
2022-07-26T00:57:46.354Z,99.99
2022-07-26T00:58:46.340Z,99.99
2022-07-26T00:59:46.325Z,99.99
2022-07-26T01:00:46.380Z,99.99
2022-07-26T01:01:46.473Z,99.99
2022-07-26T01:02:46.327Z,99.99
2022-07-26T01:03:46.267Z,99.99
2022-07-26T01:04:46.253Z,99.99
2022-07-26T01:05:46.235Z,99.99
2022-07-26T01:06:46.230Z,99.99
2022-07-26T01:07:46.209Z,99.99
2022-07-26T01:08:46.194Z,99.99
2022-07-26T01:09:46.186Z,99.99
2022-07-26T01:10:46.165Z,99.99
2022-07-26T01:11:46.149Z,99.99
2022-07-26T01:12:46.136Z,99.99
2022-07-26T01:13:46.122Z,99.99
2022-07-26T01:14:46.110Z,99.99
2022-07-26T01:15:46.147Z,99.99
2022-07-26T01:16:46.077Z,99.99
2022-07-26T01:17:46.066Z,99.99
2022-07-26T01:18:46.051Z,99.99
2022-07-26T01:19:46.039Z,99.99
2022-07-26T01:20:46.024Z,99.99
2022-07-26T01:21:46.010Z,99.99
2022-07-26T01:22:45.999Z,99.99
2022-07-26T01:23:45.985Z,99.99
2022-07-26T01:24:45.967Z,99.99
2022-07-26T01:25:46.081Z,99.99
2022-07-26T01:26:45.938Z,99.99
2022-07-26T01:27:45.922Z,99.99
2022-07-26T01:28:45.908Z,99.99
2022-07-26T01:29:45.897Z,99.99
2022-07-26T01:30:45.880Z,99.99
2022-07-26T01:31:45.952Z,99.99
2022-07-26T01:32:45.852Z,99.99
2022-07-26T01:33:45.840Z,99.99
2022-07-26T01:34:45.823Z,99.99
2022-07-26T01:35:45.816Z,99.99
2022-07-26T01:36:45.794Z,99.99
2022-07-26T01:37:45.783Z,99.99
2022-07-26T01:38:45.767Z,99.99
2022-07-26T01:39:45.752Z,99.99
2022-07-26T01:40:45.741Z,99.99
2022-07-26T01:41:45.726Z,99.99
2022-07-26T01:42:45.709Z,99.99
2022-07-26T01:43:45.704Z,99.99
2022-07-26T01:44:45.686Z,99.99
2022-07-26T01:45:45.744Z,99.99
2022-07-26T01:46:45.651Z,99.99
2022-07-26T01:47:45.636Z,99.99
2022-07-26T01:48:45.703Z,99.99
2022-07-26T01:49:45.609Z,99.99
2022-07-26T01:50:45.597Z,99.99
2022-07-26T01:51:45.585Z,99.99
2022-07-26T01:52:45.566Z,99.99
2022-07-26T01:53:45.557Z,99.99
2022-07-26T01:54:45.539Z,99.99
2022-07-26T01:55:45.521Z,99.99
2022-07-26T01:56:45.509Z,99.99
2022-07-26T01:57:45.496Z,99.99
2022-07-26T01:58:45.482Z,99.99
2022-07-26T01:59:45.466Z,99.99
2022-07-26T02:00:45.451Z,99.99
2022-07-26T02:01:45.468Z,99.99
2022-07-26T02:02:45.504Z,99.99
2022-07-26T02:03:45.407Z,99.99
2022-07-26T02:04:45.392Z,99.99
2022-07-26T02:05:45.378Z,99.99
2022-07-26T02:06:45.361Z,99.99
2022-07-26T02:07:45.351Z,99.99
2022-07-26T02:08:45.334Z,99.99
2022-07-26T02:09:45.321Z,99.99
2022-07-26T02:10:45.305Z,99.99
2022-07-26T02:11:45.297Z,99.99
2022-07-26T02:12:45.275Z,99.99
2022-07-26T02:13:48.792Z,99.99
2022-07-26T02:14:45.244Z,99.99
2022-07-26T02:15:45.303Z,99.99
2022-07-26T02:16:45.268Z,99.99
2022-07-26T02:17:45.206Z,99.99
2022-07-26T02:18:45.192Z,99.99
2022-07-26T02:19:45.176Z,99.99
2022-07-26T02:20:45.159Z,99.99
2022-07-26T02:21:45.148Z,99.99
2022-07-26T02:22:45.133Z,99.99
2022-07-26T02:23:45.116Z,99.99
2022-07-26T02:24:45.103Z,99.99
2022-07-26T02:25:45.086Z,99.99
2022-07-26T02:26:45.071Z,99.99
2022-07-26T02:27:45.058Z,99.99
2022-07-26T02:28:45.044Z,99.99
2022-07-26T02:29:45.031Z,99.99
2022-07-26T02:30:45.073Z,99.99
2022-07-26T02:31:48.396Z,99.99
2022-07-26T02:32:44.980Z,99.99
2022-07-26T02:33:44.973Z,99.99
2022-07-26T02:34:44.953Z,99.99
2022-07-26T02:35:44.942Z,99.99
2022-07-26T02:36:44.927Z,99.99
2022-07-26T02:37:44.907Z,99.99
2022-07-26T02:38:44.898Z,99.99
2022-07-26T02:39:44.884Z,99.99
2022-07-26T02:40:44.868Z,99.99
2022-07-26T02:41:44.849Z,99.99
2022-07-26T02:42:44.838Z,99.99
2022-07-26T02:43:44.823Z,99.99
2022-07-26T02:44:44.808Z,99.99
2022-07-26T02:45:44.788Z,99.99
2022-07-26T02:46:44.823Z,99.99
2022-07-26T02:47:44.764Z,99.99
2022-07-26T02:48:44.882Z,99.99
2022-07-26T02:49:44.731Z,99.99
2022-07-26T02:50:44.715Z,99.99
2022-07-26T02:51:44.701Z,99.99
2022-07-26T02:52:44.686Z,99.99
2022-07-26T02:53:44.670Z,99.99
2022-07-26T02:54:44.661Z,99.99
2022-07-26T02:55:44.641Z,99.99
2022-07-26T02:56:44.625Z,99.99
2022-07-26T02:57:46.717Z,99.99
2022-07-26T02:58:44.597Z,99.99
2022-07-26T02:59:44.588Z,99.99
2022-07-26T03:00:44.569Z,99.99
2022-07-26T03:01:44.640Z,99.99
2022-07-26T03:02:44.592Z,99.99
2022-07-26T03:03:50.106Z,99.99
2022-07-26T03:04:44.526Z,99.99
2022-07-26T03:05:44.501Z,99.99
2022-07-26T03:06:44.480Z,99.99
2022-07-26T03:07:44.464Z,99.99
2022-07-26T03:08:44.447Z,99.99
2022-07-26T03:09:44.435Z,99.99
2022-07-26T03:10:44.419Z,99.99
2022-07-26T03:11:44.408Z,99.99
2022-07-26T03:12:44.388Z,99.99
2022-07-26T03:13:44.373Z,99.99
2022-07-26T03:14:44.363Z,99.99
2022-07-26T03:15:44.387Z,99.99
2022-07-26T03:16:44.335Z,99.99
2022-07-26T03:17:44.320Z,99.99
2022-07-26T03:18:44.303Z,99.99
2022-07-26T03:19:44.285Z,99.99
2022-07-26T03:20:44.280Z,99.99
2022-07-26T03:21:44.257Z,99.99
2022-07-26T03:22:44.238Z,99.99
2022-07-26T03:23:44.234Z,99.99
2022-07-26T03:24:44.210Z,99.99
2022-07-26T03:25:44.198Z,99.99
2022-07-26T03:26:44.183Z,99.99
2022-07-26T03:27:44.164Z,99.99
2022-07-26T03:28:44.148Z,99.99
2022-07-26T03:29:44.137Z,99.99
2022-07-26T03:30:44.173Z,99.99
2022-07-26T03:31:44.110Z,99.99
2022-07-26T03:32:44.091Z,99.99
2022-07-26T03:33:44.078Z,99.99
2022-07-26T03:34:44.068Z,99.99
2022-07-26T03:35:44.045Z,99.99
2022-07-26T03:36:44.035Z,99.99
2022-07-26T03:37:45.541Z,99.99
2022-07-26T03:38:44.000Z,99.99
2022-07-26T03:39:43.991Z,99.99
2022-07-26T03:40:43.972Z,99.99
2022-07-26T03:41:43.967Z,99.99
2022-07-26T03:42:43.949Z,99.99
2022-07-26T03:43:43.941Z,99.99
2022-07-26T03:44:43.912Z,99.99
2022-07-26T03:45:43.933Z,99.99
2022-07-26T03:46:43.967Z,99.99
2022-07-26T03:47:43.899Z,99.99
2022-07-26T03:48:43.896Z,99.99
2022-07-26T03:49:43.837Z,99.99
2022-07-26T03:50:43.831Z,99.99
2022-07-26T03:51:43.813Z,99.99
2022-07-26T03:52:43.793Z,99.99
2022-07-26T03:53:43.777Z,99.99
2022-07-26T03:54:43.767Z,99.99
2022-07-26T03:55:43.747Z,99.99
2022-07-26T03:56:43.736Z,99.99
2022-07-26T03:57:43.719Z,99.99
2022-07-26T03:58:43.706Z,99.99
2022-07-26T03:59:43.694Z,99.99
2022-07-26T04:00:43.678Z,99.99
2022-07-26T04:01:43.720Z,99.99
2022-07-26T04:02:43.757Z,99.99
2022-07-26T04:03:47.605Z,99.99
2022-07-26T04:04:43.615Z,99.99
2022-07-26T04:05:48.888Z,99.99
2022-07-26T04:06:43.585Z,99.99
2022-07-26T04:07:43.567Z,99.99
2022-07-26T04:08:43.554Z,99.99
2022-07-26T04:09:43.542Z,99.99
2022-07-26T04:10:43.529Z,99.99
2022-07-26T04:11:43.510Z,99.99
2022-07-26T04:12:43.495Z,99.99
2022-07-26T04:13:43.487Z,99.99
2022-07-26T04:14:43.462Z,99.99
2022-07-26T04:15:43.448Z,99.99
2022-07-26T04:16:44.048Z,99.99
2022-07-26T04:17:43.420Z,99.99
2022-07-26T04:18:43.420Z,99.99
2022-07-26T04:19:43.392Z,99.99
2022-07-26T04:20:43.378Z,99.99
2022-07-26T04:21:43.359Z,99.99
2022-07-26T04:22:43.345Z,99.99
2022-07-26T04:23:46.547Z,99.99
2022-07-26T04:24:43.315Z,99.99
2022-07-26T04:25:43.301Z,99.99
2022-07-26T04:26:43.282Z,99.99
2022-07-26T04:27:43.272Z,99.99
2022-07-26T04:28:43.267Z,99.99
2022-07-26T04:29:43.249Z,99.99
2022-07-26T04:30:43.288Z,99.99
2022-07-26T04:31:43.209Z,99.99
2022-07-26T04:32:43.201Z,99.99
2022-07-26T04:33:43.182Z,99.99
2022-07-26T04:34:43.169Z,99.99
2022-07-26T04:35:43.157Z,99.99
2022-07-26T04:36:43.135Z,99.99
2022-07-26T04:37:43.120Z,99.99
2022-07-26T04:38:43.105Z,99.99
2022-07-26T04:39:43.096Z,99.99
2022-07-26T04:40:43.075Z,99.99
2022-07-26T04:41:43.068Z,99.99
2022-07-26T04:42:43.043Z,99.99
2022-07-26T04:43:43.027Z,99.99
2022-07-26T04:44:43.016Z,99.99
2022-07-26T04:45:43.078Z,99.99
2022-07-26T04:46:44.963Z,99.99
2022-07-26T04:47:42.974Z,99.99
2022-07-26T04:48:43.003Z,99.99
2022-07-26T04:49:42.944Z,99.99
2022-07-26T04:50:42.930Z,99.99
2022-07-26T04:51:42.916Z,99.99
2022-07-26T04:52:42.899Z,99.99
2022-07-26T04:53:42.886Z,99.99
2022-07-26T04:54:42.866Z,99.99
2022-07-26T04:55:42.856Z,99.99
2022-07-26T04:56:42.840Z,99.99
2022-07-26T04:57:42.835Z,99.99
2022-07-26T04:58:42.809Z,99.99
2022-07-26T04:59:42.795Z,99.99
2022-07-26T05:01:03.191Z,99.99
2022-07-26T05:01:42.824Z,99.99
2022-07-26T05:02:42.809Z,99.99
2022-07-26T05:03:42.736Z,99.99
2022-07-26T05:04:42.716Z,99.99
2022-07-26T05:05:42.708Z,99.99
2022-07-26T05:06:42.691Z,99.99
2022-07-26T05:07:42.672Z,99.99
2022-07-26T05:08:42.660Z,99.99
2022-07-26T05:09:42.642Z,99.99
2022-07-26T05:10:45.019Z,99.99
2022-07-26T05:11:42.616Z,99.99
2022-07-26T05:12:42.598Z,99.99
2022-07-26T05:13:42.592Z,99.99
2022-07-26T05:14:42.569Z,99.99
2022-07-26T05:15:42.942Z,99.99
2022-07-26T05:16:44.299Z,99.99
2022-07-26T05:17:42.521Z,99.99
2022-07-26T05:18:45.535Z,99.99
2022-07-26T05:19:47.447Z,99.99
2022-07-26T05:20:42.480Z,99.99
2022-07-26T05:21:42.465Z,99.99
2022-07-26T05:22:42.448Z,99.99
2022-07-26T05:23:42.460Z,99.99
2022-07-26T05:24:42.423Z,99.99
2022-07-26T05:25:42.407Z,99.99
2022-07-26T05:26:42.393Z,99.99
2022-07-26T05:27:42.429Z,99.99
2022-07-26T05:28:42.361Z,99.99
2022-07-26T05:29:42.349Z,99.99
2022-07-26T05:30:42.437Z,99.99
2022-07-26T05:31:42.315Z,99.99
2022-07-26T05:32:42.302Z,99.99
2022-07-26T05:33:42.293Z,99.99
2022-07-26T05:34:42.278Z,99.99
2022-07-26T05:35:42.261Z,99.99
2022-07-26T05:36:42.251Z,99.99
2022-07-26T05:37:42.235Z,99.99
2022-07-26T05:38:42.216Z,99.99
2022-07-26T05:39:42.203Z,99.99
2022-07-26T05:40:44.861Z,99.99
2022-07-26T05:41:42.177Z,99.99
2022-07-26T05:42:42.159Z,99.99
2022-07-26T05:43:42.362Z,99.99
2022-07-26T05:44:42.388Z,99.99
2022-07-26T05:45:42.152Z,99.99
2022-07-26T05:46:42.096Z,99.99
2022-07-26T05:47:42.085Z,99.99
2022-07-26T05:48:42.204Z,99.99
2022-07-26T05:49:42.053Z,99.99
2022-07-26T05:50:42.040Z,99.99
2022-07-26T05:51:42.022Z,99.99
2022-07-26T05:52:42.010Z,99.99
2022-07-26T05:53:41.996Z,99.99
2022-07-26T05:54:41.978Z,99.99
2022-07-26T05:55:41.962Z,99.99
2022-07-26T05:56:41.948Z,99.99
2022-07-26T05:57:41.943Z,99.99
2022-07-26T05:58:41.920Z,99.99
2022-07-26T05:59:41.909Z,99.99
2022-07-26T06:00:45.415Z,99.99
2022-07-26T06:01:41.882Z,99.99
2022-07-26T06:02:42.004Z,99.99
2022-07-26T06:03:41.854Z,99.99
2022-07-26T06:04:41.869Z,99.99
2022-07-26T06:05:41.826Z,99.99
2022-07-26T06:06:41.809Z,99.99
2022-07-26T06:07:41.791Z,99.99
2022-07-26T06:08:41.777Z,99.99
2022-07-26T06:09:41.764Z,99.99
2022-07-26T06:10:41.749Z,99.99
2022-07-26T06:11:41.733Z,99.99
2022-07-26T06:12:41.721Z,99.99
2022-07-26T06:13:41.707Z,99.99
2022-07-26T06:14:41.695Z,99.99
2022-07-26T06:15:41.682Z,99.99
2022-07-26T06:16:41.723Z,99.99
2022-07-26T06:17:41.654Z,99.99
2022-07-26T06:18:41.637Z,99.99
2022-07-26T06:19:47.100Z,99.99
2022-07-26T06:20:41.607Z,99.99
2022-07-26T06:21:41.596Z,99.99
2022-07-26T06:22:41.578Z,99.99
2022-07-26T06:23:41.572Z,99.99
2022-07-26T06:24:41.550Z,99.99
2022-07-26T06:25:41.537Z,99.99
2022-07-26T06:26:41.527Z,99.99
2022-07-26T06:27:41.508Z,99.99
2022-07-26T06:28:41.493Z,99.99
2022-07-26T06:29:41.485Z,99.99
2022-07-26T06:30:41.478Z,99.99
2022-07-26T06:31:41.521Z,99.99
2022-07-26T06:32:41.441Z,99.99
2022-07-26T06:33:41.424Z,99.99
2022-07-26T06:34:41.407Z,99.99
2022-07-26T06:35:41.398Z,99.99
2022-07-26T06:36:41.385Z,99.99
2022-07-26T06:37:41.376Z,99.99
2022-07-26T06:38:41.358Z,99.99
2022-07-26T06:39:41.344Z,99.99
2022-07-26T06:40:41.327Z,99.99
2022-07-26T06:41:41.321Z,99.99
2022-07-26T06:42:41.298Z,99.99
2022-07-26T06:43:41.296Z,99.99
2022-07-26T06:44:41.273Z,99.99
2022-07-26T06:45:41.312Z,99.99
2022-07-26T06:46:41.253Z,99.99
2022-07-26T06:47:41.233Z,99.99
2022-07-26T06:48:41.267Z,99.99
2022-07-26T06:49:41.206Z,99.99
2022-07-26T06:50:41.190Z,99.99
2022-07-26T06:51:41.174Z,99.99
2022-07-26T06:52:41.165Z,99.99
2022-07-26T06:53:41.152Z,99.99
2022-07-26T06:54:41.146Z,99.99
2022-07-26T06:55:41.125Z,99.99
2022-07-26T06:56:41.114Z,99.99
2022-07-26T06:57:45.037Z,99.99
2022-07-26T06:58:41.082Z,99.99
2022-07-26T06:59:41.071Z,99.99
2022-07-26T07:00:41.128Z,99.99
2022-07-26T07:01:58.635Z,99.99
2022-07-26T07:02:41.029Z,99.99
2022-07-26T07:03:41.017Z,99.99
2022-07-26T07:04:41.078Z,99.99
2022-07-26T07:05:40.996Z,99.99
2022-07-26T07:06:40.980Z,99.99
2022-07-26T07:07:42.744Z,99.99
2022-07-26T07:08:40.956Z,99.99
2022-07-26T07:09:40.938Z,99.99
2022-07-26T07:10:40.938Z,99.99
2022-07-26T07:11:40.909Z,99.99
2022-07-26T07:12:40.900Z,99.99
2022-07-26T07:13:40.885Z,99.99
2022-07-26T07:14:40.876Z,99.99
2022-07-26T07:15:40.863Z,99.99
2022-07-26T07:16:40.909Z,99.99
2022-07-26T07:17:40.846Z,99.99
2022-07-26T07:18:40.826Z,99.99
2022-07-26T07:19:40.813Z,99.99
2022-07-26T07:20:40.796Z,99.99
2022-07-26T07:21:40.787Z,99.99
2022-07-26T07:22:40.778Z,99.99
2022-07-26T07:23:40.759Z,99.99
2022-07-26T07:24:40.750Z,99.99
2022-07-26T07:25:40.729Z,99.99
2022-07-26T07:26:40.724Z,99.99
2022-07-26T07:27:40.706Z,99.99
2022-07-26T07:28:40.692Z,99.99
2022-07-26T07:29:41.195Z,99.99
2022-07-26T07:30:40.671Z,99.99
2022-07-26T07:31:48.709Z,99.99
2022-07-26T07:32:40.760Z,99.99
2022-07-26T07:33:52.907Z,99.99
2022-07-26T07:34:40.628Z,99.99
2022-07-26T07:35:40.610Z,99.99
2022-07-26T07:36:40.600Z,99.99
2022-07-26T07:37:53.049Z,99.99
2022-07-26T07:38:42.822Z,99.99
2022-07-26T07:39:40.559Z,99.99
2022-07-26T07:40:40.541Z,99.99
2022-07-26T07:41:40.536Z,99.99
2022-07-26T07:42:40.521Z,99.99
2022-07-26T07:43:40.511Z,99.99
2022-07-26T07:44:40.491Z,99.99
2022-07-26T07:45:40.481Z,99.99
2022-07-26T07:46:40.579Z,99.99
2022-07-26T07:47:40.453Z,99.99
2022-07-26T07:48:46.627Z,99.99
2022-07-26T07:49:40.430Z,99.99
2022-07-26T07:50:40.419Z,98.78
2022-07-26T07:51:40.404Z,97.72
2022-07-26T07:52:40.446Z,98.68
2022-07-26T07:53:40.381Z,97.62
2022-07-26T07:54:40.370Z,97.33
2022-07-26T07:55:46.117Z,98.20
2022-07-26T07:56:40.340Z,97.57
2022-07-26T07:57:40.334Z,96.41
2022-07-26T07:58:40.322Z,96.12
2022-07-26T07:59:40.310Z,95.34
2022-07-26T08:00:40.352Z,95.29
2022-07-26T08:01:41.200Z,93.26
2022-07-26T08:02:40.274Z,92.97
2022-07-26T08:03:40.285Z,92.40
2022-07-26T08:04:40.299Z,91.82
2022-07-26T08:05:40.559Z,91.96
2022-07-26T08:06:40.741Z,92.64
2022-07-26T08:07:40.208Z,93.02
2022-07-26T08:08:40.197Z,93.41
2022-07-26T08:09:43.046Z,93.12
2022-07-26T08:10:41.851Z,93.02
2022-07-26T08:11:41.845Z,93.32
2022-07-26T08:12:40.149Z,95.06
2022-07-26T08:13:43.355Z,94.53
2022-07-26T08:14:40.123Z,95.30
2022-07-26T08:15:40.116Z,94.91
2022-07-26T08:16:40.246Z,94.82
2022-07-26T08:17:42.003Z,93.66
2022-07-26T08:18:55.699Z,94.04
2022-07-26T08:19:42.231Z,93.95
2022-07-26T08:20:40.065Z,94.77
2022-07-26T08:21:40.041Z,95.10
2022-07-26T08:22:40.030Z,95.10
2022-07-26T08:23:40.026Z,94.67
2022-07-26T08:24:40.009Z,94.76
2022-07-26T08:25:55.182Z,94.96
2022-07-26T08:26:39.986Z,94.76
2022-07-26T08:27:41.187Z,94.38
2022-07-26T08:28:48.369Z,94.09
2022-07-26T08:29:39.952Z,93.90
2022-07-26T08:30:39.939Z,93.60
2022-07-26T08:31:40.050Z,94.53
2022-07-26T08:32:39.911Z,94.72
2022-07-26T08:33:40.899Z,94.82
2022-07-26T08:34:39.885Z,94.33
2022-07-26T08:35:39.883Z,95.40
2022-07-26T08:36:54.941Z,96.80
2022-07-26T08:37:39.848Z,97.57
2022-07-26T08:38:39.841Z,99.89
2022-07-26T08:39:39.826Z,99.99
2022-07-26T08:40:39.810Z,99.99
2022-07-26T08:41:39.799Z,99.99
2022-07-26T08:42:39.786Z,99.99
2022-07-26T08:43:48.919Z,99.99
2022-07-26T08:44:39.758Z,99.99
2022-07-26T08:45:39.745Z,99.99
2022-07-26T08:46:39.781Z,99.99
2022-07-26T08:47:55.244Z,99.99
2022-07-26T08:48:39.753Z,99.99
2022-07-26T08:49:39.695Z,99.99
2022-07-26T08:50:39.687Z,99.99
2022-07-26T08:51:39.673Z,99.99
2022-07-26T08:52:39.654Z,99.99
2022-07-26T08:53:39.645Z,99.99
2022-07-26T08:54:39.629Z,99.99
2022-07-26T08:56:06.579Z,99.99
2022-07-26T08:56:39.608Z,99.99
2022-07-26T08:57:39.586Z,99.99
2022-07-26T08:58:39.573Z,99.99
2022-07-26T08:59:39.557Z,99.99
2022-07-26T09:00:39.589Z,99.99
2022-07-26T09:01:39.538Z,99.99
2022-07-26T09:02:39.518Z,99.99
2022-07-26T09:03:39.584Z,99.99
2022-07-26T09:04:44.365Z,99.99
2022-07-26T09:05:39.486Z,99.99
2022-07-26T09:06:39.521Z,99.99
2022-07-26T09:07:39.453Z,99.99
2022-07-26T09:08:39.435Z,99.99
2022-07-26T09:09:39.428Z,99.99
2022-07-26T09:10:39.528Z,99.99
2022-07-26T09:11:39.394Z,99.99
2022-07-26T09:12:39.386Z,99.99
2022-07-26T09:13:39.367Z,99.99
2022-07-26T09:14:39.354Z,99.99
2022-07-26T09:15:39.337Z,99.99
2022-07-26T09:16:40.213Z,99.99
2022-07-26T09:17:39.314Z,99.99
2022-07-26T09:18:39.296Z,99.99
2022-07-26T09:19:39.282Z,99.99
2022-07-26T09:20:39.280Z,99.99
2022-07-26T09:21:39.256Z,99.99
2022-07-26T09:22:39.245Z,99.99
2022-07-26T09:23:39.232Z,99.99
2022-07-26T09:24:39.210Z,99.99
2022-07-26T09:25:39.200Z,99.99
2022-07-26T09:26:39.185Z,99.99
2022-07-26T09:27:39.179Z,99.99
2022-07-26T09:28:45.015Z,99.99
2022-07-26T09:29:39.160Z,99.99
2022-07-26T09:30:39.139Z,99.99
2022-07-26T09:31:39.248Z,99.99
2022-07-26T09:32:39.105Z,99.99
2022-07-26T09:33:39.092Z,99.99
2022-07-26T09:34:48.042Z,99.99
2022-07-26T09:35:50.473Z,99.99
2022-07-26T09:36:39.044Z,99.99
2022-07-26T09:37:39.062Z,99.99
2022-07-26T09:38:39.020Z,99.99
2022-07-26T09:39:39.007Z,99.99
2022-07-26T09:40:38.991Z,99.99
2022-07-26T09:41:38.984Z,99.99
2022-07-26T09:42:38.962Z,99.99
2022-07-26T09:43:38.953Z,99.99
2022-07-26T09:44:38.938Z,99.99
2022-07-26T09:45:38.925Z,99.99
2022-07-26T09:46:38.970Z,99.99
2022-07-26T09:47:38.893Z,99.99
2022-07-26T09:49:08.357Z,99.99
2022-07-26T09:49:40.621Z,99.99
2022-07-26T09:50:38.857Z,99.99
2022-07-26T09:51:38.854Z,99.99
2022-07-26T09:52:38.843Z,99.99
2022-07-26T09:53:38.827Z,99.99
2022-07-26T09:54:38.802Z,99.99
2022-07-26T09:55:44.580Z,99.99
2022-07-26T09:56:38.774Z,99.99
2022-07-26T09:57:38.762Z,99.99
2022-07-26T09:58:38.754Z,99.99
2022-07-26T09:59:38.734Z,99.99
2022-07-26T10:00:38.718Z,99.99
2022-07-26T10:01:38.755Z,99.99
2022-07-26T10:02:38.765Z,99.99
2022-07-26T10:03:38.692Z,99.99
2022-07-26T10:04:38.688Z,99.99
2022-07-26T10:05:38.660Z,99.99
2022-07-26T10:06:38.652Z,99.99
2022-07-26T10:07:38.633Z,99.99
2022-07-26T10:08:38.620Z,99.99
2022-07-26T10:09:38.605Z,99.99
2022-07-26T10:10:38.591Z,99.99
2022-07-26T10:11:38.576Z,99.99
2022-07-26T10:12:38.572Z,99.99
2022-07-26T10:13:38.556Z,99.99
2022-07-26T10:14:38.549Z,99.99
2022-07-26T10:15:38.585Z,99.99
2022-07-26T10:16:38.515Z,99.99
2022-07-26T10:17:38.507Z,99.99
2022-07-26T10:18:38.512Z,99.99
2022-07-26T10:19:41.400Z,99.99
2022-07-26T10:20:38.460Z,99.99
2022-07-26T10:21:38.446Z,99.99
2022-07-26T10:22:38.436Z,99.99
2022-07-26T10:23:38.420Z,99.99
2022-07-26T10:24:38.416Z,99.99
2022-07-26T10:25:38.399Z,99.99
2022-07-26T10:26:38.391Z,99.99
2022-07-26T10:27:38.377Z,99.99
2022-07-26T10:28:38.352Z,99.99
2022-07-26T10:29:38.340Z,99.99
2022-07-26T10:30:38.325Z,99.99
2022-07-26T10:31:38.376Z,99.99
2022-07-26T10:32:38.294Z,99.99
2022-07-26T10:33:38.288Z,99.99
2022-07-26T10:34:38.268Z,99.99
2022-07-26T10:35:38.256Z,99.99
2022-07-26T10:36:38.247Z,99.99
2022-07-26T10:37:38.232Z,99.99
2022-07-26T10:38:38.213Z,99.99
2022-07-26T10:39:38.199Z,99.99
2022-07-26T10:40:38.185Z,99.99
2022-07-26T10:41:38.174Z,99.99
2022-07-26T10:42:38.159Z,99.99
2022-07-26T10:43:42.243Z,99.99
2022-07-26T10:44:38.127Z,99.99
2022-07-26T10:45:38.124Z,99.99
2022-07-26T10:46:38.216Z,99.99
2022-07-26T10:47:38.086Z,99.99
2022-07-26T10:48:38.147Z,99.99
2022-07-26T10:49:38.067Z,99.99
2022-07-26T10:50:38.048Z,99.99
2022-07-26T10:51:38.031Z,99.99
2022-07-26T10:52:38.019Z,99.99
2022-07-26T10:53:38.021Z,99.99
2022-07-26T10:54:37.995Z,99.99
2022-07-26T10:55:38.317Z,99.99
2022-07-26T10:56:37.994Z,99.99
2022-07-26T10:57:37.965Z,99.99
2022-07-26T10:58:37.941Z,99.99
2022-07-26T10:59:55.288Z,99.99
2022-07-26T11:00:37.928Z,99.99
2022-07-26T11:01:38.039Z,99.99
2022-07-26T11:02:37.930Z,99.99
2022-07-26T11:03:38.886Z,99.99
2022-07-26T11:04:37.856Z,99.99
2022-07-26T11:05:37.845Z,99.99
2022-07-26T11:06:37.827Z,99.99
2022-07-26T11:07:37.845Z,99.99
2022-07-26T11:08:37.818Z,99.99
2022-07-26T11:09:37.788Z,99.99
2022-07-26T11:10:37.776Z,99.99
2022-07-26T11:11:37.759Z,99.99
2022-07-26T11:12:37.747Z,99.99
2022-07-26T11:13:37.734Z,99.99
2022-07-26T11:14:37.722Z,99.99
2022-07-26T11:15:37.817Z,99.99
2022-07-26T11:16:37.697Z,99.99
2022-07-26T11:17:37.677Z,99.99
2022-07-26T11:18:37.674Z,99.99
2022-07-26T11:19:37.665Z,99.99
2022-07-26T11:20:37.637Z,99.99
2022-07-26T11:21:37.632Z,99.99
2022-07-26T11:22:37.618Z,99.99
2022-07-26T11:23:37.605Z,99.99
2022-07-26T11:24:37.588Z,99.99
2022-07-26T11:25:37.574Z,99.99
2022-07-26T11:26:37.573Z,99.99
2022-07-26T11:27:37.565Z,99.99
2022-07-26T11:28:37.536Z,99.99
2022-07-26T11:29:40.772Z,99.99
2022-07-26T11:30:37.509Z,99.99
2022-07-26T11:31:51.005Z,99.99
2022-07-26T11:32:39.106Z,99.99
2022-07-26T11:33:37.475Z,99.99
2022-07-26T11:34:37.789Z,99.99
2022-07-26T11:35:37.448Z,99.99
2022-07-26T11:36:37.437Z,99.99
2022-07-26T11:37:38.340Z,99.99
2022-07-26T11:38:37.402Z,99.99
2022-07-26T11:39:37.414Z,99.99
2022-07-26T11:40:37.378Z,99.99
2022-07-26T11:41:37.365Z,99.99
2022-07-26T11:42:37.346Z,99.99
2022-07-26T11:43:37.336Z,99.99
2022-07-26T11:44:37.329Z,99.99
2022-07-26T11:45:37.310Z,99.99
2022-07-26T11:46:37.467Z,99.99
2022-07-26T11:47:37.284Z,99.99
2022-07-26T11:48:37.296Z,99.99
2022-07-26T11:50:11.675Z,99.99
2022-07-26T11:50:37.249Z,99.99
2022-07-26T11:51:37.237Z,99.99
2022-07-26T11:52:37.218Z,99.99
2022-07-26T11:53:37.265Z,99.99
2022-07-26T11:54:37.190Z,99.99
2022-07-26T11:55:37.177Z,99.99
2022-07-26T11:56:37.172Z,99.99
2022-07-26T11:57:37.176Z,99.99
2022-07-26T11:58:37.139Z,99.99
2022-07-26T11:59:37.126Z,99.99
2022-07-26T12:00:37.128Z,99.99
2022-07-26T12:01:37.100Z,99.99
2022-07-26T12:02:37.087Z,99.99
2022-07-26T12:03:37.141Z,99.99
2022-07-26T12:04:37.238Z,99.99
2022-07-26T12:05:37.111Z,99.99
2022-07-26T12:06:37.032Z,99.99
2022-07-26T12:07:37.016Z,99.99
2022-07-26T12:08:37.007Z,99.99
2022-07-26T12:09:37.002Z,99.99
2022-07-26T12:10:36.980Z,99.99
2022-07-26T12:11:36.965Z,99.99
2022-07-26T12:12:36.959Z,99.99
2022-07-26T12:13:39.606Z,99.99
2022-07-26T12:14:36.934Z,99.99
2022-07-26T12:15:36.948Z,99.99
2022-07-26T12:16:36.900Z,99.99
2022-07-26T12:17:36.895Z,99.99
2022-07-26T12:18:36.889Z,99.99
2022-07-26T12:19:36.862Z,99.99
2022-07-26T12:20:36.849Z,99.99
2022-07-26T12:21:36.845Z,99.99
2022-07-26T12:22:36.825Z,99.99
2022-07-26T12:23:36.813Z,99.99
2022-07-26T12:24:36.800Z,99.99
2022-07-26T12:25:36.791Z,99.99
2022-07-26T12:26:37.120Z,99.99
2022-07-26T12:27:36.763Z,99.99
2022-07-26T12:28:37.330Z,99.99
2022-07-26T12:29:36.742Z,99.99
2022-07-26T12:30:36.790Z,99.99
2022-07-26T12:31:36.771Z,99.99
2022-07-26T12:32:36.700Z,99.99
2022-07-26T12:33:37.420Z,99.99
2022-07-26T12:34:36.674Z,99.99
2022-07-26T12:35:36.659Z,99.99
2022-07-26T12:36:36.650Z,99.99
2022-07-26T12:37:40.578Z,99.99
2022-07-26T12:38:36.623Z,99.99
2022-07-26T12:39:36.609Z,99.99
2022-07-26T12:40:36.599Z,99.99
2022-07-26T12:41:36.612Z,99.99
2022-07-26T12:42:36.573Z,99.99
2022-07-26T12:43:36.570Z,99.99
2022-07-26T12:44:36.548Z,99.99
2022-07-26T12:45:36.569Z,99.99
2022-07-26T12:46:36.816Z,99.99
2022-07-26T12:47:36.509Z,99.99
2022-07-26T12:48:36.551Z,99.99
2022-07-26T12:49:36.477Z,99.99
2022-07-26T12:50:36.487Z,99.99
2022-07-26T12:51:36.457Z,99.99
2022-07-26T12:52:36.434Z,99.99